sensor_id;sensor_type;location;lat;lon;timestamp;P1;durP1;ratioP1;P2;durP2;ratioP2
6987;SDS011;3534;49.960;8.018;2023-04-08T00:00:56;21.70;;;13.00;;
6987;SDS011;3534;49.960;8.018;2023-04-08T00:03:23;17.97;;;11.87;;
6987;SDS011;3534;49.960;8.018;2023-04-08T00:05:50;19.30;;;11.50;;
6987;SDS011;3534;49.960;8.018;2023-04-08T00:08:16;19.17;;;12.30;;
6987;SDS011;3534;49.960;8.018;2023-04-08T00:10:43;18.50;;;11.03;;
6987;SDS011;3534;49.960;8.018;2023-04-08T00:13:11;18.20;;;11.57;;
6987;SDS011;3534;49.960;8.018;2023-04-08T00:15:39;16.27;;;11.50;;
6987;SDS011;3534;49.960;8.018;2023-04-08T00:18:06;16.33;;;10.33;;
6987;SDS011;3534;49.960;8.018;2023-04-08T00:20:33;14.30;;;10.47;;
6987;SDS011;3534;49.960;8.018;2023-04-08T00:22:59;17.60;;;11.30;;
6987;SDS011;3534;49.960;8.018;2023-04-08T00:25:26;16.93;;;10.37;;
6987;SDS011;3534;49.960;8.018;2023-04-08T00:27:53;17.47;;;10.80;;
6987;SDS011;3534;49.960;8.018;2023-04-08T00:30:21;18.50;;;10.27;;
6987;SDS011;3534;49.960;8.018;2023-04-08T00:32:48;16.03;;;9.93;;
6987;SDS011;3534;49.960;8.018;2023-04-08T00:35:15;16.17;;;9.90;;
6987;SDS011;3534;49.960;8.018;2023-04-08T00:37:42;17.70;;;11.33;;
6987;SDS011;3534;49.960;8.018;2023-04-08T00:40:08;15.80;;;11.10;;
6987;SDS011;3534;49.960;8.018;2023-04-08T00:42:35;15.13;;;10.10;;
6987;SDS011;3534;49.960;8.018;2023-04-08T00:45:02;15.97;;;9.53;;
6987;SDS011;3534;49.960;8.018;2023-04-08T00:47:30;17.30;;;10.90;;
6987;SDS011;3534;49.960;8.018;2023-04-08T00:49:57;14.70;;;9.73;;
6987;SDS011;3534;49.960;8.018;2023-04-08T00:52:24;15.40;;;9.93;;
6987;SDS011;3534;49.960;8.018;2023-04-08T00:54:50;15.50;;;10.17;;
6987;SDS011;3534;49.960;8.018;2023-04-08T00:57:17;14.80;;;9.27;;
6987;SDS011;3534;49.960;8.018;2023-04-08T00:59:44;16.27;;;10.63;;
6987;SDS011;3534;49.960;8.018;2023-04-08T01:02:11;15.90;;;10.43;;
6987;SDS011;3534;49.960;8.018;2023-04-08T01:04:46;18.70;;;10.30;;
6987;SDS011;3534;49.960;8.018;2023-04-08T01:07:28;12.47;;;9.17;;
6987;SDS011;3534;49.960;8.018;2023-04-08T01:09:58;18.83;;;10.37;;
6987;SDS011;3534;49.960;8.018;2023-04-08T01:12:28;15.20;;;10.70;;
6987;SDS011;3534;49.960;8.018;2023-04-08T01:14:58;14.43;;;10.60;;
6987;SDS011;3534;49.960;8.018;2023-04-08T01:17:28;17.03;;;11.17;;
6987;SDS011;3534;49.960;8.018;2023-04-08T01:19:57;13.33;;;9.53;;
6987;SDS011;3534;49.960;8.018;2023-04-08T01:22:26;19.30;;;11.00;;
6987;SDS011;3534;49.960;8.018;2023-04-08T01:25:00;21.90;;;11.90;;
6987;SDS011;3534;49.960;8.018;2023-04-08T01:27:32;17.40;;;11.13;;
6987;SDS011;3534;49.960;8.018;2023-04-08T01:30:00;16.77;;;10.73;;
6987;SDS011;3534;49.960;8.018;2023-04-08T01:32:28;15.37;;;10.20;;
6987;SDS011;3534;49.960;8.018;2023-04-08T01:34:57;19.50;;;10.47;;
6987;SDS011;3534;49.960;8.018;2023-04-08T01:37:24;14.13;;;10.23;;
6987;SDS011;3534;49.960;8.018;2023-04-08T01:39:53;14.70;;;10.10;;
6987;SDS011;3534;49.960;8.018;2023-04-08T01:42:21;13.23;;;9.47;;
6987;SDS011;3534;49.960;8.018;2023-04-08T01:44:50;14.67;;;9.93;;
6987;SDS011;3534;49.960;8.018;2023-04-08T01:47:17;15.37;;;8.70;;
6987;SDS011;3534;49.960;8.018;2023-04-08T01:49:44;11.80;;;8.27;;
6987;SDS011;3534;49.960;8.018;2023-04-08T01:52:12;16.50;;;8.67;;
6987;SDS011;3534;49.960;8.018;2023-04-08T01:54:41;12.87;;;8.00;;
6987;SDS011;3534;49.960;8.018;2023-04-08T01:57:08;13.73;;;9.17;;
6987;SDS011;3534;49.960;8.018;2023-04-08T01:59:39;13.37;;;8.27;;
6987;SDS011;3534;49.960;8.018;2023-04-08T02:02:09;11.90;;;8.73;;
6987;SDS011;3534;49.960;8.018;2023-04-08T02:04:37;13.07;;;8.90;;
6987;SDS011;3534;49.960;8.018;2023-04-08T02:07:04;15.53;;;8.67;;
6987;SDS011;3534;49.960;8.018;2023-04-08T02:09:31;18.80;;;9.33;;
6987;SDS011;3534;49.960;8.018;2023-04-08T02:11:58;12.40;;;8.80;;
6987;SDS011;3534;49.960;8.018;2023-04-08T02:14:25;15.83;;;9.37;;
6987;SDS011;3534;49.960;8.018;2023-04-08T02:16:53;13.70;;;9.40;;
6987;SDS011;3534;49.960;8.018;2023-04-08T02:19:28;15.30;;;9.43;;
6987;SDS011;3534;49.960;8.018;2023-04-08T02:21:57;13.33;;;9.03;;
6987;SDS011;3534;49.960;8.018;2023-04-08T02:24:30;12.30;;;8.27;;
6987;SDS011;3534;49.960;8.018;2023-04-08T02:26:58;12.80;;;9.10;;
6987;SDS011;3534;49.960;8.018;2023-04-08T02:29:27;14.57;;;7.87;;
6987;SDS011;3534;49.960;8.018;2023-04-08T02:31:56;12.77;;;8.30;;
6987;SDS011;3534;49.960;8.018;2023-04-08T02:34:27;12.20;;;8.17;;
6987;SDS011;3534;49.960;8.018;2023-04-08T02:36:55;13.37;;;9.07;;
6987;SDS011;3534;49.960;8.018;2023-04-08T02:39:29;14.87;;;9.40;;
6987;SDS011;3534;49.960;8.018;2023-04-08T02:41:56;11.90;;;7.83;;
6987;SDS011;3534;49.960;8.018;2023-04-08T02:44:23;12.87;;;7.80;;
6987;SDS011;3534;49.960;8.018;2023-04-08T02:46:50;12.70;;;8.73;;
6987;SDS011;3534;49.960;8.018;2023-04-08T02:49:17;16.57;;;8.27;;
6987;SDS011;3534;49.960;8.018;2023-04-08T02:51:45;12.10;;;9.03;;
6987;SDS011;3534;49.960;8.018;2023-04-08T02:54:11;11.83;;;7.80;;
6987;SDS011;3534;49.960;8.018;2023-04-08T02:56:38;15.03;;;8.33;;
6987;SDS011;3534;49.960;8.018;2023-04-08T02:59:05;15.60;;;9.67;;
6987;SDS011;3534;49.960;8.018;2023-04-08T03:01:32;11.63;;;8.80;;
6987;SDS011;3534;49.960;8.018;2023-04-08T03:03:58;15.13;;;9.07;;
6987;SDS011;3534;49.960;8.018;2023-04-08T03:06:25;13.57;;;9.00;;
6987;SDS011;3534;49.960;8.018;2023-04-08T03:08:53;13.27;;;8.70;;
6987;SDS011;3534;49.960;8.018;2023-04-08T03:11:20;13.33;;;9.20;;
6987;SDS011;3534;49.960;8.018;2023-04-08T03:13:46;12.73;;;9.13;;
6987;SDS011;3534;49.960;8.018;2023-04-08T03:16:13;16.50;;;10.80;;
6987;SDS011;3534;49.960;8.018;2023-04-08T03:18:40;12.93;;;9.23;;
6987;SDS011;3534;49.960;8.018;2023-04-08T03:21:06;14.67;;;9.63;;
6987;SDS011;3534;49.960;8.018;2023-04-08T03:23:33;14.40;;;9.30;;
6987;SDS011;3534;49.960;8.018;2023-04-08T03:26:01;19.77;;;10.50;;
6987;SDS011;3534;49.960;8.018;2023-04-08T03:28:28;16.37;;;10.70;;
6987;SDS011;3534;49.960;8.018;2023-04-08T03:30:54;16.70;;;11.53;;
6987;SDS011;3534;49.960;8.018;2023-04-08T03:33:21;15.77;;;10.87;;
6987;SDS011;3534;49.960;8.018;2023-04-08T03:35:48;16.97;;;11.73;;
6987;SDS011;3534;49.960;8.018;2023-04-08T03:38:14;17.53;;;10.90;;
6987;SDS011;3534;49.960;8.018;2023-04-08T03:40:41;16.60;;;10.37;;
6987;SDS011;3534;49.960;8.018;2023-04-08T03:43:09;17.07;;;10.50;;
6987;SDS011;3534;49.960;8.018;2023-04-08T03:45:36;15.80;;;10.50;;
6987;SDS011;3534;49.960;8.018;2023-04-08T03:48:03;15.67;;;9.80;;
6987;SDS011;3534;49.960;8.018;2023-04-08T03:50:30;17.90;;;11.57;;
6987;SDS011;3534;49.960;8.018;2023-04-08T03:52:57;21.30;;;11.97;;
6987;SDS011;3534;49.960;8.018;2023-04-08T03:55:24;16.20;;;10.77;;
6987;SDS011;3534;49.960;8.018;2023-04-08T03:57:50;15.90;;;10.77;;
6987;SDS011;3534;49.960;8.018;2023-04-08T04:00:18;13.70;;;9.33;;
6987;SDS011;3534;49.960;8.018;2023-04-08T04:02:45;14.90;;;10.10;;
6987;SDS011;3534;49.960;8.018;2023-04-08T04:05:12;14.50;;;10.83;;
6987;SDS011;3534;49.960;8.018;2023-04-08T04:07:38;19.27;;;11.87;;
6987;SDS011;3534;49.960;8.018;2023-04-08T04:10:05;18.23;;;10.90;;
6987;SDS011;3534;49.960;8.018;2023-04-08T04:12:34;19.13;;;11.40;;
6987;SDS011;3534;49.960;8.018;2023-04-08T04:15:01;13.97;;;10.10;;
6987;SDS011;3534;49.960;8.018;2023-04-08T04:17:29;15.37;;;10.43;;
6987;SDS011;3534;49.960;8.018;2023-04-08T04:19:55;16.97;;;11.47;;
6987;SDS011;3534;49.960;8.018;2023-04-08T04:22:22;15.33;;;10.90;;
6987;SDS011;3534;49.960;8.018;2023-04-08T04:24:49;15.97;;;10.20;;
6987;SDS011;3534;49.960;8.018;2023-04-08T04:27:15;15.83;;;9.57;;
6987;SDS011;3534;49.960;8.018;2023-04-08T04:29:42;15.63;;;11.20;;
6987;SDS011;3534;49.960;8.018;2023-04-08T04:32:09;17.63;;;10.83;;
6987;SDS011;3534;49.960;8.018;2023-04-08T04:34:37;17.23;;;12.30;;
6987;SDS011;3534;49.960;8.018;2023-04-08T04:37:03;17.00;;;11.40;;
6987;SDS011;3534;49.960;8.018;2023-04-08T04:39:30;17.30;;;11.67;;
6987;SDS011;3534;49.960;8.018;2023-04-08T04:41:57;15.60;;;10.83;;
6987;SDS011;3534;49.960;8.018;2023-04-08T04:44:23;15.30;;;10.50;;
6987;SDS011;3534;49.960;8.018;2023-04-08T04:46:51;19.03;;;12.33;;
6987;SDS011;3534;49.960;8.018;2023-04-08T04:49:17;17.30;;;10.93;;
6987;SDS011;3534;49.960;8.018;2023-04-08T04:51:45;15.33;;;10.27;;
6987;SDS011;3534;49.960;8.018;2023-04-08T04:54:15;14.30;;;9.70;;
6987;SDS011;3534;49.960;8.018;2023-04-08T04:56:42;15.30;;;10.30;;
6987;SDS011;3534;49.960;8.018;2023-04-08T04:59:09;12.63;;;8.90;;
6987;SDS011;3534;49.960;8.018;2023-04-08T05:01:35;14.47;;;10.13;;
6987;SDS011;3534;49.960;8.018;2023-04-08T05:04:02;17.40;;;10.00;;
6987;SDS011;3534;49.960;8.018;2023-04-08T05:06:29;15.17;;;8.97;;
6987;SDS011;3534;49.960;8.018;2023-04-08T05:08:57;16.40;;;10.90;;
6987;SDS011;3534;49.960;8.018;2023-04-08T05:11:24;13.30;;;10.67;;
6987;SDS011;3534;49.960;8.018;2023-04-08T05:13:50;15.23;;;9.93;;
6987;SDS011;3534;49.960;8.018;2023-04-08T05:16:17;16.23;;;10.90;;
6987;SDS011;3534;49.960;8.018;2023-04-08T05:18:44;16.97;;;10.37;;
6987;SDS011;3534;49.960;8.018;2023-04-08T05:21:10;18.30;;;11.03;;
6987;SDS011;3534;49.960;8.018;2023-04-08T05:23:37;15.90;;;10.27;;
6987;SDS011;3534;49.960;8.018;2023-04-08T05:26:06;13.37;;;9.47;;
6987;SDS011;3534;49.960;8.018;2023-04-08T05:28:33;13.80;;;9.90;;
6987;SDS011;3534;49.960;8.018;2023-04-08T05:31:00;13.40;;;9.83;;
6987;SDS011;3534;49.960;8.018;2023-04-08T05:33:27;15.00;;;10.80;;
6987;SDS011;3534;49.960;8.018;2023-04-08T05:35:53;14.43;;;9.73;;
6987;SDS011;3534;49.960;8.018;2023-04-08T05:38:20;21.20;;;10.90;;
6987;SDS011;3534;49.960;8.018;2023-04-08T05:40:47;24.10;;;11.53;;
6987;SDS011;3534;49.960;8.018;2023-04-08T05:43:15;21.03;;;10.93;;
6987;SDS011;3534;49.960;8.018;2023-04-08T05:45:41;16.07;;;11.10;;
6987;SDS011;3534;49.960;8.018;2023-04-08T05:48:08;17.00;;;11.23;;
6987;SDS011;3534;49.960;8.018;2023-04-08T05:50:35;23.27;;;11.17;;
6987;SDS011;3534;49.960;8.018;2023-04-08T05:53:01;16.77;;;11.30;;
6987;SDS011;3534;49.960;8.018;2023-04-08T05:55:28;18.73;;;11.80;;
6987;SDS011;3534;49.960;8.018;2023-04-08T05:57:55;17.33;;;11.50;;
6987;SDS011;3534;49.960;8.018;2023-04-08T06:00:23;17.53;;;12.37;;
6987;SDS011;3534;49.960;8.018;2023-04-08T06:02:50;18.03;;;11.50;;
6987;SDS011;3534;49.960;8.018;2023-04-08T06:05:17;20.70;;;13.37;;
6987;SDS011;3534;49.960;8.018;2023-04-08T06:07:44;19.80;;;13.27;;
6987;SDS011;3534;49.960;8.018;2023-04-08T06:10:11;18.73;;;12.30;;
6987;SDS011;3534;49.960;8.018;2023-04-08T06:12:37;24.80;;;14.03;;
6987;SDS011;3534;49.960;8.018;2023-04-08T06:15:04;20.00;;;13.57;;
6987;SDS011;3534;49.960;8.018;2023-04-08T06:17:35;21.60;;;13.93;;
6987;SDS011;3534;49.960;8.018;2023-04-08T06:20:03;24.33;;;14.97;;
6987;SDS011;3534;49.960;8.018;2023-04-08T06:22:30;25.93;;;16.00;;
6987;SDS011;3534;49.960;8.018;2023-04-08T06:24:57;20.57;;;14.10;;
6987;SDS011;3534;49.960;8.018;2023-04-08T06:27:24;21.93;;;14.37;;
6987;SDS011;3534;49.960;8.018;2023-04-08T06:29:50;24.50;;;15.20;;
6987;SDS011;3534;49.960;8.018;2023-04-08T06:32:17;24.87;;;15.57;;
6987;SDS011;3534;49.960;8.018;2023-04-08T06:34:46;21.07;;;12.73;;
6987;SDS011;3534;49.960;8.018;2023-04-08T06:37:12;24.50;;;14.50;;
6987;SDS011;3534;49.960;8.018;2023-04-08T06:39:39;22.60;;;14.53;;
6987;SDS011;3534;49.960;8.018;2023-04-08T06:42:06;19.93;;;13.90;;
6987;SDS011;3534;49.960;8.018;2023-04-08T06:44:33;23.33;;;14.17;;
6987;SDS011;3534;49.960;8.018;2023-04-08T06:46:59;19.97;;;12.43;;
6987;SDS011;3534;49.960;8.018;2023-04-08T06:49:26;22.03;;;15.57;;
6987;SDS011;3534;49.960;8.018;2023-04-08T06:51:55;23.57;;;14.80;;
6987;SDS011;3534;49.960;8.018;2023-04-08T06:54:21;24.43;;;13.97;;
6987;SDS011;3534;49.960;8.018;2023-04-08T06:56:48;26.17;;;15.20;;
6987;SDS011;3534;49.960;8.018;2023-04-08T06:59:15;24.53;;;15.20;;
6987;SDS011;3534;49.960;8.018;2023-04-08T07:01:41;21.67;;;14.20;;
6987;SDS011;3534;49.960;8.018;2023-04-08T07:04:08;23.10;;;14.73;;
6987;SDS011;3534;49.960;8.018;2023-04-08T07:06:35;20.73;;;14.13;;
6987;SDS011;3534;49.960;8.018;2023-04-08T07:09:03;21.13;;;13.80;;
6987;SDS011;3534;49.960;8.018;2023-04-08T07:11:30;22.77;;;14.37;;
6987;SDS011;3534;49.960;8.018;2023-04-08T07:13:56;22.10;;;14.37;;
6987;SDS011;3534;49.960;8.018;2023-04-08T07:16:23;21.87;;;15.03;;
6987;SDS011;3534;49.960;8.018;2023-04-08T07:18:50;23.53;;;15.13;;
6987;SDS011;3534;49.960;8.018;2023-04-08T07:21:16;25.73;;;15.97;;
6987;SDS011;3534;49.960;8.018;2023-04-08T07:23:43;24.70;;;14.90;;
6987;SDS011;3534;49.960;8.018;2023-04-08T07:26:11;23.90;;;14.63;;
6987;SDS011;3534;49.960;8.018;2023-04-08T07:28:38;22.47;;;14.57;;
6987;SDS011;3534;49.960;8.018;2023-04-08T07:31:08;27.03;;;14.50;;
6987;SDS011;3534;49.960;8.018;2023-04-08T07:33:36;22.90;;;14.23;;
6987;SDS011;3534;49.960;8.018;2023-04-08T07:36:02;22.93;;;14.37;;
6987;SDS011;3534;49.960;8.018;2023-04-08T07:38:29;22.50;;;14.60;;
6987;SDS011;3534;49.960;8.018;2023-04-08T07:40:56;22.77;;;14.73;;
6987;SDS011;3534;49.960;8.018;2023-04-08T07:43:24;24.07;;;14.93;;
6987;SDS011;3534;49.960;8.018;2023-04-08T07:45:51;23.37;;;15.00;;
6987;SDS011;3534;49.960;8.018;2023-04-08T07:48:18;20.70;;;12.67;;
6987;SDS011;3534;49.960;8.018;2023-04-08T07:50:44;26.50;;;15.20;;
6987;SDS011;3534;49.960;8.018;2023-04-08T07:53:11;22.67;;;15.23;;
6987;SDS011;3534;49.960;8.018;2023-04-08T07:55:38;24.70;;;14.70;;
6987;SDS011;3534;49.960;8.018;2023-04-08T07:58:06;19.80;;;12.33;;
6987;SDS011;3534;49.960;8.018;2023-04-08T08:00:34;16.80;;;12.27;;
6987;SDS011;3534;49.960;8.018;2023-04-08T08:03:01;15.03;;;10.77;;
6987;SDS011;3534;49.960;8.018;2023-04-08T08:05:28;19.87;;;12.10;;
6987;SDS011;3534;49.960;8.018;2023-04-08T08:07:54;17.87;;;12.27;;
6987;SDS011;3534;49.960;8.018;2023-04-08T08:10:21;19.93;;;13.53;;
6987;SDS011;3534;49.960;8.018;2023-04-08T08:12:48;18.63;;;11.97;;
6987;SDS011;3534;49.960;8.018;2023-04-08T08:15:14;19.10;;;12.73;;
6987;SDS011;3534;49.960;8.018;2023-04-08T08:17:42;17.10;;;11.83;;
6987;SDS011;3534;49.960;8.018;2023-04-08T08:20:09;21.70;;;13.50;;
6987;SDS011;3534;49.960;8.018;2023-04-08T08:22:36;18.77;;;13.03;;
6987;SDS011;3534;49.960;8.018;2023-04-08T08:25:04;22.10;;;14.37;;
6987;SDS011;3534;49.960;8.018;2023-04-08T08:27:33;21.63;;;13.10;;
6987;SDS011;3534;49.960;8.018;2023-04-08T08:30:00;19.97;;;13.10;;
6987;SDS011;3534;49.960;8.018;2023-04-08T08:32:27;19.03;;;12.57;;
6987;SDS011;3534;49.960;8.018;2023-04-08T08:34:55;22.50;;;13.70;;
6987;SDS011;3534;49.960;8.018;2023-04-08T08:37:22;20.30;;;12.90;;
6987;SDS011;3534;49.960;8.018;2023-04-08T08:39:49;20.10;;;12.47;;
6987;SDS011;3534;49.960;8.018;2023-04-08T08:42:19;22.60;;;14.27;;
6987;SDS011;3534;49.960;8.018;2023-04-08T08:44:46;19.47;;;13.73;;
6987;SDS011;3534;49.960;8.018;2023-04-08T08:47:13;19.70;;;12.90;;
6987;SDS011;3534;49.960;8.018;2023-04-08T08:49:40;19.93;;;13.80;;
6987;SDS011;3534;49.960;8.018;2023-04-08T08:52:08;23.13;;;13.60;;
6987;SDS011;3534;49.960;8.018;2023-04-08T08:54:35;19.77;;;13.73;;
6987;SDS011;3534;49.960;8.018;2023-04-08T08:57:02;19.90;;;13.73;;
6987;SDS011;3534;49.960;8.018;2023-04-08T08:59:29;18.87;;;12.70;;
6987;SDS011;3534;49.960;8.018;2023-04-08T09:01:56;22.27;;;14.47;;
6987;SDS011;3534;49.960;8.018;2023-04-08T09:04:22;21.80;;;14.20;;
6987;SDS011;3534;49.960;8.018;2023-04-08T09:06:50;20.87;;;14.10;;
6987;SDS011;3534;49.960;8.018;2023-04-08T09:09:46;20.50;;;13.67;;
6987;SDS011;3534;49.960;8.018;2023-04-08T09:12:14;22.83;;;13.70;;
6987;SDS011;3534;49.960;8.018;2023-04-08T09:14:40;18.67;;;12.80;;
6987;SDS011;3534;49.960;8.018;2023-04-08T09:17:07;20.23;;;12.20;;
6987;SDS011;3534;49.960;8.018;2023-04-08T09:19:34;18.30;;;12.73;;
6987;SDS011;3534;49.960;8.018;2023-04-08T09:22:04;19.20;;;13.17;;
6987;SDS011;3534;49.960;8.018;2023-04-08T09:24:33;19.67;;;12.47;;
6987;SDS011;3534;49.960;8.018;2023-04-08T09:27:01;18.43;;;11.67;;
6987;SDS011;3534;49.960;8.018;2023-04-08T09:29:27;23.17;;;13.00;;
6987;SDS011;3534;49.960;8.018;2023-04-08T09:31:55;19.93;;;12.00;;
6987;SDS011;3534;49.960;8.018;2023-04-08T09:34:22;24.10;;;13.23;;
6987;SDS011;3534;49.960;8.018;2023-04-08T09:36:50;18.87;;;12.27;;
6987;SDS011;3534;49.960;8.018;2023-04-08T09:39:18;17.30;;;12.10;;
6987;SDS011;3534;49.960;8.018;2023-04-08T09:41:48;15.00;;;10.93;;
6987;SDS011;3534;49.960;8.018;2023-04-08T09:44:15;17.87;;;12.50;;
6987;SDS011;3534;49.960;8.018;2023-04-08T09:46:46;14.90;;;10.97;;
6987;SDS011;3534;49.960;8.018;2023-04-08T09:49:25;19.37;;;12.37;;
6987;SDS011;3534;49.960;8.018;2023-04-08T09:51:53;19.60;;;11.87;;
6987;SDS011;3534;49.960;8.018;2023-04-08T09:54:30;18.43;;;12.40;;
6987;SDS011;3534;49.960;8.018;2023-04-08T09:57:04;16.40;;;11.20;;
6987;SDS011;3534;49.960;8.018;2023-04-08T09:59:36;21.07;;;12.83;;
6987;SDS011;3534;49.960;8.018;2023-04-08T10:02:08;16.30;;;11.60;;
6987;SDS011;3534;49.960;8.018;2023-04-08T10:04:38;18.53;;;12.27;;
6987;SDS011;3534;49.960;8.018;2023-04-08T10:07:07;14.73;;;10.77;;
6987;SDS011;3534;49.960;8.018;2023-04-08T10:09:34;18.70;;;10.93;;
6987;SDS011;3534;49.960;8.018;2023-04-08T10:12:02;14.13;;;9.73;;
6987;SDS011;3534;49.960;8.018;2023-04-08T10:14:31;13.00;;;8.70;;
6987;SDS011;3534;49.960;8.018;2023-04-08T10:19:52;14.77;;;10.23;;
6987;SDS011;3534;49.960;8.018;2023-04-08T10:25:27;19.17;;;11.33;;
6987;SDS011;3534;49.960;8.018;2023-04-08T10:27:57;13.80;;;9.60;;
6987;SDS011;3534;49.960;8.018;2023-04-08T10:30:39;13.07;;;9.90;;
6987;SDS011;3534;49.960;8.018;2023-04-08T10:33:10;14.73;;;8.70;;
6987;SDS011;3534;49.960;8.018;2023-04-08T10:35:40;15.57;;;9.87;;
6987;SDS011;3534;49.960;8.018;2023-04-08T10:38:10;12.47;;;9.60;;
6987;SDS011;3534;49.960;8.018;2023-04-08T10:40:38;15.53;;;9.27;;
6987;SDS011;3534;49.960;8.018;2023-04-08T10:43:08;15.80;;;11.00;;
6987;SDS011;3534;49.960;8.018;2023-04-08T10:45:35;13.10;;;10.07;;
6987;SDS011;3534;49.960;8.018;2023-04-08T10:48:12;17.47;;;11.93;;
6987;SDS011;3534;49.960;8.018;2023-04-08T10:50:39;18.37;;;12.50;;
6987;SDS011;3534;49.960;8.018;2023-04-08T10:53:06;17.63;;;12.10;;
6987;SDS011;3534;49.960;8.018;2023-04-08T10:55:33;15.90;;;11.43;;
6987;SDS011;3534;49.960;8.018;2023-04-08T10:58:04;18.47;;;12.07;;
6987;SDS011;3534;49.960;8.018;2023-04-08T11:00:33;19.67;;;13.17;;
6987;SDS011;3534;49.960;8.018;2023-04-08T11:03:01;18.47;;;11.50;;
6987;SDS011;3534;49.960;8.018;2023-04-08T11:05:28;20.77;;;13.67;;
6987;SDS011;3534;49.960;8.018;2023-04-08T11:07:55;17.80;;;11.60;;
6987;SDS011;3534;49.960;8.018;2023-04-08T11:10:22;18.10;;;11.43;;
6987;SDS011;3534;49.960;8.018;2023-04-08T11:12:50;18.43;;;11.70;;
6987;SDS011;3534;49.960;8.018;2023-04-08T11:15:18;23.93;;;12.43;;
6987;SDS011;3534;49.960;8.018;2023-04-08T11:17:46;15.63;;;11.23;;
6987;SDS011;3534;49.960;8.018;2023-04-08T11:20:13;17.37;;;11.17;;
6987;SDS011;3534;49.960;8.018;2023-04-08T11:22:40;15.10;;;11.23;;
6987;SDS011;3534;49.960;8.018;2023-04-08T11:25:08;16.33;;;11.90;;
6987;SDS011;3534;49.960;8.018;2023-04-08T11:27:35;13.70;;;10.20;;
6987;SDS011;3534;49.960;8.018;2023-04-08T11:30:03;15.10;;;9.70;;
6987;SDS011;3534;49.960;8.018;2023-04-08T11:32:32;12.00;;;9.33;;
6987;SDS011;3534;49.960;8.018;2023-04-08T11:35:00;14.10;;;10.93;;
6987;SDS011;3534;49.960;8.018;2023-04-08T11:37:35;15.57;;;10.77;;
6987;SDS011;3534;49.960;8.018;2023-04-08T11:40:05;13.33;;;9.57;;
6987;SDS011;3534;49.960;8.018;2023-04-08T11:42:33;15.17;;;9.47;;
6987;SDS011;3534;49.960;8.018;2023-04-08T11:45:00;11.53;;;8.00;;
6987;SDS011;3534;49.960;8.018;2023-04-08T11:47:30;10.07;;;7.27;;
6987;SDS011;3534;49.960;8.018;2023-04-08T11:49:57;11.10;;;7.90;;
6987;SDS011;3534;49.960;8.018;2023-04-08T11:52:40;12.50;;;7.67;;
6987;SDS011;3534;49.960;8.018;2023-04-08T11:55:08;10.73;;;7.47;;
6987;SDS011;3534;49.960;8.018;2023-04-08T11:57:35;9.70;;;7.33;;
6987;SDS011;3534;49.960;8.018;2023-04-08T12:00:03;14.00;;;8.10;;
6987;SDS011;3534;49.960;8.018;2023-04-08T12:02:30;9.33;;;6.30;;
6987;SDS011;3534;49.960;8.018;2023-04-08T12:04:57;15.90;;;8.13;;
6987;SDS011;3534;49.960;8.018;2023-04-08T12:07:24;14.20;;;8.67;;
6987;SDS011;3534;49.960;8.018;2023-04-08T12:09:52;9.43;;;7.27;;
6987;SDS011;3534;49.960;8.018;2023-04-08T12:12:19;10.50;;;7.63;;
6987;SDS011;3534;49.960;8.018;2023-04-08T12:14:45;12.60;;;8.07;;
6987;SDS011;3534;49.960;8.018;2023-04-08T12:17:12;9.53;;;6.77;;
6987;SDS011;3534;49.960;8.018;2023-04-08T12:19:38;10.27;;;7.70;;
6987;SDS011;3534;49.960;8.018;2023-04-08T12:22:05;10.60;;;7.80;;
6987;SDS011;3534;49.960;8.018;2023-04-08T12:24:32;10.07;;;7.60;;
6987;SDS011;3534;49.960;8.018;2023-04-08T12:27:00;10.53;;;7.97;;
6987;SDS011;3534;49.960;8.018;2023-04-08T12:29:28;9.00;;;7.17;;
6987;SDS011;3534;49.960;8.018;2023-04-08T12:31:55;9.97;;;7.47;;
6987;SDS011;3534;49.960;8.018;2023-04-08T12:34:22;10.87;;;7.80;;
6987;SDS011;3534;49.960;8.018;2023-04-08T12:36:49;8.03;;;6.30;;
6987;SDS011;3534;49.960;8.018;2023-04-08T12:39:15;9.50;;;6.33;;
6987;SDS011;3534;49.960;8.018;2023-04-08T12:41:42;9.67;;;7.30;;
6987;SDS011;3534;49.960;8.018;2023-04-08T12:44:10;8.30;;;7.13;;
6987;SDS011;3534;49.960;8.018;2023-04-08T12:46:37;10.43;;;7.30;;
6987;SDS011;3534;49.960;8.018;2023-04-08T12:49:03;9.10;;;6.60;;
6987;SDS011;3534;49.960;8.018;2023-04-08T12:51:30;10.87;;;7.40;;
6987;SDS011;3534;49.960;8.018;2023-04-08T12:53:57;11.33;;;6.83;;
6987;SDS011;3534;49.960;8.018;2023-04-08T12:56:25;10.13;;;6.50;;
6987;SDS011;3534;49.960;8.018;2023-04-08T12:58:51;8.57;;;6.10;;
6987;SDS011;3534;49.960;8.018;2023-04-08T13:01:21;8.53;;;6.10;;
6987;SDS011;3534;49.960;8.018;2023-04-08T13:03:47;8.73;;;6.37;;
6987;SDS011;3534;49.960;8.018;2023-04-08T13:06:14;11.00;;;7.07;;
6987;SDS011;3534;49.960;8.018;2023-04-08T13:08:41;8.77;;;6.50;;
6987;SDS011;3534;49.960;8.018;2023-04-08T13:11:08;7.63;;;5.60;;
6987;SDS011;3534;49.960;8.018;2023-04-08T13:13:35;10.13;;;6.40;;
6987;SDS011;3534;49.960;8.018;2023-04-08T13:16:01;10.70;;;6.20;;
6987;SDS011;3534;49.960;8.018;2023-04-08T13:18:29;7.33;;;5.90;;
6987;SDS011;3534;49.960;8.018;2023-04-08T13:20:56;14.57;;;6.97;;
6987;SDS011;3534;49.960;8.018;2023-04-08T13:23:23;11.13;;;5.80;;
6987;SDS011;3534;49.960;8.018;2023-04-08T13:25:50;8.47;;;6.70;;
6987;SDS011;3534;49.960;8.018;2023-04-08T13:28:17;6.40;;;5.57;;
6987;SDS011;3534;49.960;8.018;2023-04-08T13:30:43;7.70;;;6.40;;
6987;SDS011;3534;49.960;8.018;2023-04-08T13:33:10;9.50;;;6.43;;
6987;SDS011;3534;49.960;8.018;2023-04-08T13:35:38;11.23;;;6.33;;
6987;SDS011;3534;49.960;8.018;2023-04-08T13:38:05;8.57;;;6.30;;
6987;SDS011;3534;49.960;8.018;2023-04-08T13:40:31;8.33;;;6.20;;
6987;SDS011;3534;49.960;8.018;2023-04-08T13:42:58;8.27;;;5.83;;
6987;SDS011;3534;49.960;8.018;2023-04-08T13:45:25;7.23;;;5.50;;
6987;SDS011;3534;49.960;8.018;2023-04-08T13:47:52;9.93;;;6.20;;
6987;SDS011;3534;49.960;8.018;2023-04-08T13:50:18;9.43;;;6.90;;
6987;SDS011;3534;49.960;8.018;2023-04-08T13:52:46;8.40;;;6.30;;
6987;SDS011;3534;49.960;8.018;2023-04-08T13:55:13;9.23;;;7.10;;
6987;SDS011;3534;49.960;8.018;2023-04-08T13:57:40;7.87;;;6.43;;
6987;SDS011;3534;49.960;8.018;2023-04-08T14:00:07;7.53;;;6.73;;
6987;SDS011;3534;49.960;8.018;2023-04-08T14:02:35;7.83;;;6.30;;
6987;SDS011;3534;49.960;8.018;2023-04-08T14:05:01;9.10;;;5.90;;
6987;SDS011;3534;49.960;8.018;2023-04-08T14:07:28;8.67;;;7.33;;
6987;SDS011;3534;49.960;8.018;2023-04-08T14:09:56;11.27;;;8.60;;
6987;SDS011;3534;49.960;8.018;2023-04-08T14:12:23;10.03;;;6.00;;
6987;SDS011;3534;49.960;8.018;2023-04-08T14:14:50;12.60;;;9.13;;
6987;SDS011;3534;49.960;8.018;2023-04-08T14:17:16;11.43;;;6.50;;
6987;SDS011;3534;49.960;8.018;2023-04-08T14:19:43;9.90;;;8.00;;
6987;SDS011;3534;49.960;8.018;2023-04-08T14:22:10;12.00;;;8.90;;
6987;SDS011;3534;49.960;8.018;2023-04-08T14:24:36;9.73;;;8.00;;
6987;SDS011;3534;49.960;8.018;2023-04-08T14:27:04;8.87;;;6.17;;
6987;SDS011;3534;49.960;8.018;2023-04-08T14:29:31;7.33;;;6.10;;
6987;SDS011;3534;49.960;8.018;2023-04-08T14:31:58;13.17;;;10.50;;
6987;SDS011;3534;49.960;8.018;2023-04-08T14:34:25;10.30;;;8.70;;
6987;SDS011;3534;49.960;8.018;2023-04-08T14:36:51;11.17;;;8.37;;
6987;SDS011;3534;49.960;8.018;2023-04-08T14:39:18;11.97;;;8.07;;
6987;SDS011;3534;49.960;8.018;2023-04-08T14:41:45;8.13;;;5.90;;
6987;SDS011;3534;49.960;8.018;2023-04-08T14:44:13;11.00;;;7.50;;
6987;SDS011;3534;49.960;8.018;2023-04-08T14:46:40;6.23;;;5.33;;
6987;SDS011;3534;49.960;8.018;2023-04-08T14:49:06;9.43;;;6.30;;
6987;SDS011;3534;49.960;8.018;2023-04-08T14:51:33;7.23;;;5.80;;
6987;SDS011;3534;49.960;8.018;2023-04-08T14:54:01;10.23;;;6.73;;
6987;SDS011;3534;49.960;8.018;2023-04-08T14:56:28;9.87;;;8.73;;
6987;SDS011;3534;49.960;8.018;2023-04-08T14:58:55;22.43;;;15.00;;
6987;SDS011;3534;49.960;8.018;2023-04-08T15:01:23;9.43;;;6.80;;
6987;SDS011;3534;49.960;8.018;2023-04-08T15:03:50;8.80;;;6.60;;